首页
METAR-TAF:

METAR-TAF

机场 :

哈爾科夫國際機場

哈爾科夫, 乌克兰

纬度: 49-58N, 经度: 036-08E, 海拔: 154米

当前天气观测

该预报发布于38分钟前的21:00 UTC
风速8节,风向东北
温度 23°C
湿度 57%
气压 1015 hPa
能见度10公里或以上
1500米以下无云,无积雨云

METAR: UKHH 192100Z 04004MPS CAVOK 23/14 Q1015 R07/0///81 NOSIG

时间: 00:38 (21:38 UTC)

预报

该预报发布于4小时和36分钟前的17:02 UTC
预报有效从19日的 18点(UTC)到 20日的 18点(UTC)
风速8节,风向东北
能见度10公里或以上
1500米以下无云,无积雨云
成为
从 20日的 05点(UTC)到 20日的 06点(UTC)
风速12节,风向,有时为23节阵风

TAF: UKHH 191702Z 1918/2018 05004MPS CAVOK TX29/2012Z TN18/2003Z BECMG 2005/2006 08006G12MPS

超过4000个机场的气象观测和天气预报(METAR&TAF报告)。

可查询的气象台以黄色和红色小点在地图上表示。

将鼠标移到小点上方,可查看气象台名称。

然后点击查看天气观测和预报。

如需切换地图:点击带黑十字的绿色按钮放大地图;点击带横线的绿色按钮缩小地图;或者点击绿色箭头查看邻近地区的地图。


METAR-TAF: